EGTEEGKK

Guest
Details From EGTE - Exeter
To EGKK - London Gatwick
Flight Number -
Tags Routegen Generated
Created
Modified
Stats Distance 123 nm / 228 km
Max Altitude 1,200 ft / 366 m
Waypoints 5
Social Downloads 0
Likes 0
Share VATSIM

Download

Looking for another format? Having issues loading an existing format? Contact us
Advertisement - Login to hide

Notes

Departing runway 7 EGTE. Arriving runway 7 EGKK.

Route

EGTE +50.75_-003.29 +50.90_-002.18 +51.11_+000.44 EGKK

ID Type Via Altitude Latitude Longitude Leg Dist Tot Dist Heading (true) Name
O EGTE APT - 1,200 ft / 366 m 50.73653˚ -3.39950˚ - 0 nm - -
+50.75_-003.29 DME - 1,200 ft / 366 m 50.75387˚ -3.28847˚ 4 nm 4 nm 76° / 76° -
+50.90_-002.18 DME - 1,200 ft / 366 m 50.90183˚ -2.17554˚ 43 nm 47 nm 78° / 79° -
+51.11_+000.44 DME - 1,200 ft / 366 m 51.11388˚ -0.43751˚ 66 nm 114 nm 78° / 80° -
O EGKK APT - 0 ft / 0 m 51.14511˚ -0.21231˚ 8 nm 123 nm 77° / 78° -

Altitude Profile

Advertisement - Login to hide

EGTE

Details ICAO EGTE (EXT)
Name Exeter
Region United Kingdom
Timezone Europe/London (UTC+1.0)
Stats Elevation 102 ft / 31 m (AMSL)
Location 50.734260° -3.414000°
Runways 1
Magnetic Variation 1.449° W

METAR

EGTE 211850Z 23003KT 9999 FEW050TCU 18/11 Q1015

Decode

TAF

Not found

Departure Runways

ID Width Length Bearing (true) Bearing (mag) Surface Threshold Offset Overrun Length
08 151 ft / 46 m 6,666 ft / 2,032 m 76.09° 77.54° Asphalt 0 ft / 0 m 0 ft / 0 m
26 151 ft / 46 m 6,666 ft / 2,032 m 256.11° 257.56° Asphalt 0 ft / 0 m 0 ft / 0 m

EGKK

Details ICAO EGKK (LGW)
Name London Gatwick
Region United Kingdom
Timezone Europe/London (UTC+1.0)
Stats Elevation 196 ft / 60 m (AMSL)
Location 51.148753° -0.192472°
Runways 2
Magnetic Variation 0.369° W

METAR

EGKK 211850Z 02005KT 340V130 9999 -RA NSC 19/12 Q1014

Decode

TAF

TAF EGKK 211702Z 2118/2224 04009KT 9999 FEW045 PROB30 TEMPO 2118/2119 4000 +TSRA PROB30 TEMPO 2200/2208 8000

Decode

Destination Runways

ID Width Length Bearing (true) Bearing (mag) Surface Threshold Offset Overrun Length
08L 148 ft / 45 m 8,377 ft / 2,553 m 77.69° 78.06° Asphalt 1,053 ft / 321 m 0 ft / 0 m
08R 148 ft / 45 m 10,341 ft / 3,152 m 77.59° 77.96° Asphalt 1,289 ft / 393 m 0 ft / 0 m
26L 148 ft / 45 m 10,341 ft / 3,152 m 257.63° 258.00° Asphalt 879 ft / 268 m 600 ft / 183 m
26R 148 ft / 45 m 8,377 ft / 2,553 m 257.71° 258.08° Asphalt 1,365 ft / 416 m 0 ft / 0 m

Approach Navaids

Runway Type Ident Frequency Range Bearing (true) Bearing (mag) Slope Elevation
08R Localiser IGG 110.90 MHz 18 nm / 33 km 77.66° 78.03° - 196 ft / 60 m (AMSL)
08R Glidescope IGG 110.90 MHz 10 nm / 19 km 77.61° 77.98° 3.00° 196 ft / 60 m (AMSL)
08R DME IGG 110.90 MHz 18 nm / 33 km - - - 274 ft / 84 m (AMSL)
26L Localiser IWW 110.90 MHz 18 nm / 33 km 257.42° 257.78° - 196 ft / 60 m (AMSL)
26L Glidescope IWW 110.90 MHz 10 nm / 19 km 257.61° 257.98° 3.00° 196 ft / 60 m (AMSL)
26L DME IWW 110.90 MHz 18 nm / 33 km - - - 274 ft / 84 m (AMSL)

Popular Alternatives